sensor_id;sensor_type;location;lat;lon;timestamp;pressure;altitude;pressure_sealevel;temperature;humidity
33859;BME280;20156;47.486;12.074;2022-09-03T00:01:26;93238.31;;;15.26;100.00
33859;BME280;20156;47.486;12.074;2022-09-03T00:03:59;93218.63;;;15.71;100.00
33859;BME280;20156;47.486;12.074;2022-09-03T00:06:34;93277.28;;;15.94;100.00
33859;BME280;20156;47.486;12.074;2022-09-03T00:09:08;93283.81;;;15.59;100.00
33859;BME280;20156;47.486;12.074;2022-09-03T00:14:56;93279.06;;;16.17;100.00
33859;BME280;20156;47.486;12.074;2022-09-03T00:17:28;93333.59;;;15.83;100.00
33859;BME280;20156;47.486;12.074;2022-09-03T00:20:01;93316.22;;;15.68;100.00
33859;BME280;20156;47.486;12.074;2022-09-03T00:22:32;93296.81;;;15.88;100.00
33859;BME280;20156;47.486;12.074;2022-09-03T00:25:03;93324.59;;;16.08;100.00
33859;BME280;20156;47.486;12.074;2022-09-03T00:27:36;93325.72;;;15.83;100.00
33859;BME280;20156;47.486;12.074;2022-09-03T00:30:08;93313.66;;;15.63;100.00
33859;BME280;20156;47.486;12.074;2022-09-03T00:32:44;93279.84;;;15.38;100.00
33859;BME280;20156;47.486;12.074;2022-09-03T00:35:16;93225.47;;;15.29;100.00
33859;BME280;20156;47.486;12.074;2022-09-03T00:37:45;93216.69;;;15.39;100.00
33859;BME280;20156;47.486;12.074;2022-09-03T00:40:41;93215.63;;;15.40;100.00
33859;BME280;20156;47.486;12.074;2022-09-03T00:45:52;93201.47;;;15.60;100.00
33859;BME280;20156;47.486;12.074;2022-09-03T00:48:26;93228.84;;;15.73;100.00
33859;BME280;20156;47.486;12.074;2022-09-03T00:54:09;93269.00;;;16.06;100.00
33859;BME280;20156;47.486;12.074;2022-09-03T01:02:31;93267.88;;;15.74;100.00
33859;BME280;20156;47.486;12.074;2022-09-03T01:13:45;93252.28;;;15.83;100.00
33859;BME280;20156;47.486;12.074;2022-09-03T01:30:53;93298.34;;;15.89;100.00
33859;BME280;20156;47.486;12.074;2022-09-03T01:33:40;93301.78;;;15.47;100.00
33859;BME280;20156;47.486;12.074;2022-09-03T01:36:20;93281.41;;;15.39;100.00
33859;BME280;20156;47.486;12.074;2022-09-03T01:38:52;93249.78;;;15.54;100.00
33859;BME280;20156;47.486;12.074;2022-09-03T01:44:39;93252.84;;;15.99;100.00
33859;BME280;20156;47.486;12.074;2022-09-03T01:49:56;93291.47;;;15.93;100.00
33859;BME280;20156;47.486;12.074;2022-09-03T01:55:31;93277.09;;;15.90;100.00
33859;BME280;20156;47.486;12.074;2022-09-03T01:58:25;93246.63;;;15.76;100.00
33859;BME280;20156;47.486;12.074;2022-09-03T02:01:02;93238.63;;;15.86;100.00
33859;BME280;20156;47.486;12.074;2022-09-03T02:03:36;93263.06;;;16.00;100.00
33859;BME280;20156;47.486;12.074;2022-09-03T02:06:03;93274.53;;;15.85;100.00
33859;BME280;20156;47.486;12.074;2022-09-03T02:08:30;93259.94;;;15.98;100.00
33859;BME280;20156;47.486;12.074;2022-09-03T02:10:57;93289.53;;;15.61;100.00
33859;BME280;20156;47.486;12.074;2022-09-03T02:13:29;93256.47;;;15.41;100.00
33859;BME280;20156;47.486;12.074;2022-09-03T02:15:59;93227.88;;;15.45;100.00
33859;BME280;20156;47.486;12.074;2022-09-03T02:18:38;93194.41;;;15.79;100.00
33859;BME280;20156;47.486;12.074;2022-09-03T02:21:06;93171.91;;;15.54;100.00
33859;BME280;20156;47.486;12.074;2022-09-03T02:23:32;93158.81;;;15.73;100.00
33859;BME280;20156;47.486;12.074;2022-09-03T02:26:00;93147.06;;;15.71;100.00
33859;BME280;20156;47.486;12.074;2022-09-03T02:28:27;93152.59;;;15.50;100.00
33859;BME280;20156;47.486;12.074;2022-09-03T02:30:53;93126.97;;;15.47;100.00
33859;BME280;20156;47.486;12.074;2022-09-03T02:33:19;93138.88;;;15.91;100.00
33859;BME280;20156;47.486;12.074;2022-09-03T02:35:45;93197.53;;;15.95;100.00
33859;BME280;20156;47.486;12.074;2022-09-03T02:38:23;93214.06;;;15.95;100.00
33859;BME280;20156;47.486;12.074;2022-09-03T02:40:52;93192.19;;;15.49;100.00
33859;BME280;20156;47.486;12.074;2022-09-03T02:46:03;93109.25;;;15.01;100.00
33859;BME280;20156;47.486;12.074;2022-09-03T02:48:30;93069.22;;;15.52;100.00
33859;BME280;20156;47.486;12.074;2022-09-03T02:50:55;93108.53;;;15.71;100.00
33859;BME280;20156;47.486;12.074;2022-09-03T02:53:21;93131.91;;;15.68;100.00
33859;BME280;20156;47.486;12.074;2022-09-03T02:55:46;93146.06;;;15.85;100.00
33859;BME280;20156;47.486;12.074;2022-09-03T02:58:12;93134.34;;;15.78;100.00
33859;BME280;20156;47.486;12.074;2022-09-03T03:00:37;93126.53;;;15.59;100.00
33859;BME280;20156;47.486;12.074;2022-09-03T03:03:04;93106.41;;;15.54;100.00
33859;BME280;20156;47.486;12.074;2022-09-03T03:05:45;93079.69;;;15.71;100.00
33859;BME280;20156;47.486;12.074;2022-09-03T03:08:12;93097.84;;;15.68;100.00
33859;BME280;20156;47.486;12.074;2022-09-03T03:10:40;93109.75;;;15.41;100.00
33859;BME280;20156;47.486;12.074;2022-09-03T03:13:07;93091.16;;;15.56;100.00
33859;BME280;20156;47.486;12.074;2022-09-03T03:15:32;93122.78;;;15.46;100.00
33859;BME280;20156;47.486;12.074;2022-09-03T03:17:58;93120.66;;;16.00;100.00
33859;BME280;20156;47.486;12.074;2022-09-03T03:20:23;93151.25;;;15.34;100.00
33859;BME280;20156;47.486;12.074;2022-09-03T03:22:48;93095.59;;;15.23;100.00
33859;BME280;20156;47.486;12.074;2022-09-03T03:25:14;93062.53;;;15.27;100.00
33859;BME280;20156;47.486;12.074;2022-09-03T03:27:40;93050.50;;;15.08;100.00
33859;BME280;20156;47.486;12.074;2022-09-03T03:30:07;93016.41;;;14.94;100.00
33859;BME280;20156;47.486;12.074;2022-09-03T03:32:37;92977.91;;;14.94;100.00
33859;BME280;20156;47.486;12.074;2022-09-03T03:35:04;92947.41;;;15.03;100.00
33859;BME280;20156;47.486;12.074;2022-09-03T03:37:31;92935.59;;;15.20;100.00
33859;BME280;20156;47.486;12.074;2022-09-03T03:39:56;92948.03;;;15.28;100.00
33859;BME280;20156;47.486;12.074;2022-09-03T03:42:22;92980.16;;;15.33;100.00
33859;BME280;20156;47.486;12.074;2022-09-03T03:44:47;93016.09;;;15.66;100.00
33859;BME280;20156;47.486;12.074;2022-09-03T03:47:12;93068.72;;;15.50;100.00
33859;BME280;20156;47.486;12.074;2022-09-03T03:49:41;93065.75;;;15.38;100.00
33859;BME280;20156;47.486;12.074;2022-09-03T03:52:07;93046.66;;;15.38;100.00
33859;BME280;20156;47.486;12.074;2022-09-03T03:54:32;93031.59;;;15.29;100.00
33859;BME280;20156;47.486;12.074;2022-09-03T03:56:58;93032.16;;;15.26;100.00
33859;BME280;20156;47.486;12.074;2022-09-03T03:59:23;93027.19;;;15.25;100.00
33859;BME280;20156;47.486;12.074;2022-09-03T04:01:48;93017.53;;;15.39;100.00
33859;BME280;20156;47.486;12.074;2022-09-03T04:04:15;93021.66;;;15.45;100.00
33859;BME280;20156;47.486;12.074;2022-09-03T04:06:40;93025.03;;;15.46;100.00
33859;BME280;20156;47.486;12.074;2022-09-03T04:09:06;93033.16;;;15.44;100.00
33859;BME280;20156;47.486;12.074;2022-09-03T04:11:31;93038.53;;;15.53;100.00
33859;BME280;20156;47.486;12.074;2022-09-03T04:13:57;93070.88;;;15.81;100.00
33859;BME280;20156;47.486;12.074;2022-09-03T04:16:25;93099.13;;;15.84;100.00
33859;BME280;20156;47.486;12.074;2022-09-03T04:18:52;93107.50;;;15.34;100.00
33859;BME280;20156;47.486;12.074;2022-09-03T04:21:26;93067.63;;;15.70;100.00
33859;BME280;20156;47.486;12.074;2022-09-03T04:23:52;93072.25;;;15.92;100.00
33859;BME280;20156;47.486;12.074;2022-09-03T04:26:20;93062.19;;;15.67;100.00
33859;BME280;20156;47.486;12.074;2022-09-03T04:28:47;93042.09;;;15.62;100.00
33859;BME280;20156;47.486;12.074;2022-09-03T04:31:14;93008.03;;;15.62;100.00
33859;BME280;20156;47.486;12.074;2022-09-03T04:33:40;92998.91;;;15.87;100.00
33859;BME280;20156;47.486;12.074;2022-09-03T04:36:10;93017.56;;;15.85;100.00
33859;BME280;20156;47.486;12.074;2022-09-03T04:38:38;93028.41;;;15.65;100.00
33859;BME280;20156;47.486;12.074;2022-09-03T04:41:05;93028.41;;;15.32;100.00
33859;BME280;20156;47.486;12.074;2022-09-03T04:43:32;93012.25;;;15.58;100.00
33859;BME280;20156;47.486;12.074;2022-09-03T04:46:03;93013.09;;;15.86;100.00
33859;BME280;20156;47.486;12.074;2022-09-03T04:48:30;93042.81;;;15.49;100.00
33859;BME280;20156;47.486;12.074;2022-09-03T04:53:36;93029.41;;;15.18;100.00
33859;BME280;20156;47.486;12.074;2022-09-03T04:56:11;93013.06;;;15.40;100.00
33859;BME280;20156;47.486;12.074;2022-09-03T04:58:37;93019.47;;;15.66;100.00
33859;BME280;20156;47.486;12.074;2022-09-03T05:01:16;93042.66;;;15.40;100.00
33859;BME280;20156;47.486;12.074;2022-09-03T05:03:42;93007.78;;;15.12;100.00
33859;BME280;20156;47.486;12.074;2022-09-03T05:06:08;93003.06;;;15.09;100.00
33859;BME280;20156;47.486;12.074;2022-09-03T05:08:35;92952.88;;;15.67;100.00
33859;BME280;20156;47.486;12.074;2022-09-03T05:11:06;92954.16;;;15.97;100.00
33859;BME280;20156;47.486;12.074;2022-09-03T05:13:33;92991.72;;;16.20;100.00
33859;BME280;20156;47.486;12.074;2022-09-03T05:16:00;93051.38;;;16.28;100.00
33859;BME280;20156;47.486;12.074;2022-09-03T05:18:26;93103.16;;;16.09;100.00
33859;BME280;20156;47.486;12.074;2022-09-03T05:20:59;93101.75;;;15.84;100.00
33859;BME280;20156;47.486;12.074;2022-09-03T05:23:26;93092.44;;;15.91;100.00
33859;BME280;20156;47.486;12.074;2022-09-03T05:26:01;93067.41;;;16.40;100.00
33859;BME280;20156;47.486;12.074;2022-09-03T05:28:28;93117.88;;;16.37;100.00
33859;BME280;20156;47.486;12.074;2022-09-03T05:33:24;93132.69;;;16.01;100.00
33859;BME280;20156;47.486;12.074;2022-09-03T05:35:49;93144.66;;;16.07;100.00
33859;BME280;20156;47.486;12.074;2022-09-03T05:38:15;93136.91;;;16.29;100.00
33859;BME280;20156;47.486;12.074;2022-09-03T05:40:42;93165.44;;;16.63;100.00
33859;BME280;20156;47.486;12.074;2022-09-03T05:43:07;93199.72;;;16.86;100.00
33859;BME280;20156;47.486;12.074;2022-09-03T05:45:33;93258.06;;;16.82;100.00
33859;BME280;20156;47.486;12.074;2022-09-03T05:47:59;93257.47;;;16.72;100.00
33859;BME280;20156;47.486;12.074;2022-09-03T05:50:25;93259.38;;;16.66;100.00
33859;BME280;20156;47.486;12.074;2022-09-03T05:52:51;93263.59;;;16.67;100.00
33859;BME280;20156;47.486;12.074;2022-09-03T05:55:17;93260.69;;;16.96;100.00
33859;BME280;20156;47.486;12.074;2022-09-03T05:57:42;93272.88;;;17.06;100.00
33859;BME280;20156;47.486;12.074;2022-09-03T06:00:09;93307.91;;;17.29;100.00
33859;BME280;20156;47.486;12.074;2022-09-03T06:02:35;93339.44;;;17.01;100.00
33859;BME280;20156;47.486;12.074;2022-09-03T06:05:01;93336.53;;;17.17;100.00
33859;BME280;20156;47.486;12.074;2022-09-03T06:07:26;93339.19;;;17.17;100.00
33859;BME280;20156;47.486;12.074;2022-09-03T06:09:52;93343.34;;;17.18;100.00
33859;BME280;20156;47.486;12.074;2022-09-03T06:12:18;93303.72;;;17.28;100.00
33859;BME280;20156;47.486;12.074;2022-09-03T06:14:44;93343.16;;;17.41;100.00
33859;BME280;20156;47.486;12.074;2022-09-03T06:17:09;93367.81;;;17.32;100.00
33859;BME280;20156;47.486;12.074;2022-09-03T06:19:37;93380.09;;;17.64;100.00
33859;BME280;20156;47.486;12.074;2022-09-03T06:22:02;93380.88;;;17.64;100.00
33859;BME280;20156;47.486;12.074;2022-09-03T06:24:28;93397.84;;;17.72;100.00
33859;BME280;20156;47.486;12.074;2022-09-03T06:26:57;93434.03;;;17.61;100.00
33859;BME280;20156;47.486;12.074;2022-09-03T06:29:23;93427.09;;;17.84;100.00
33859;BME280;20156;47.486;12.074;2022-09-03T06:31:49;93411.91;;;17.81;100.00
33859;BME280;20156;47.486;12.074;2022-09-03T06:34:14;93410.59;;;17.65;100.00
33859;BME280;20156;47.486;12.074;2022-09-03T06:36:42;93405.34;;;17.65;100.00
33859;BME280;20156;47.486;12.074;2022-09-03T06:39:08;93435.81;;;17.66;100.00
33859;BME280;20156;47.486;12.074;2022-09-03T06:41:33;93414.41;;;18.00;100.00
33859;BME280;20156;47.486;12.074;2022-09-03T06:44:02;93449.28;;;18.19;100.00
33859;BME280;20156;47.486;12.074;2022-09-03T06:46:29;93452.41;;;18.21;100.00
33859;BME280;20156;47.486;12.074;2022-09-03T06:48:55;93473.34;;;18.40;100.00
33859;BME280;20156;47.486;12.074;2022-09-03T06:51:23;93500.56;;;18.49;100.00
33859;BME280;20156;47.486;12.074;2022-09-03T06:53:52;93493.69;;;18.62;100.00
33859;BME280;20156;47.486;12.074;2022-09-03T06:56:20;93511.34;;;18.61;100.00
33859;BME280;20156;47.486;12.074;2022-09-03T06:58:58;93529.44;;;18.68;100.00
33859;BME280;20156;47.486;12.074;2022-09-03T07:01:26;93522.03;;;18.70;100.00
33859;BME280;20156;47.486;12.074;2022-09-03T07:03:54;93521.41;;;18.87;100.00
33859;BME280;20156;47.486;12.074;2022-09-03T07:06:21;93538.94;;;19.05;100.00
33859;BME280;20156;47.486;12.074;2022-09-03T07:08:46;93561.69;;;19.01;100.00
33859;BME280;20156;47.486;12.074;2022-09-03T07:11:17;93580.75;;;18.98;100.00
33859;BME280;20156;47.486;12.074;2022-09-03T07:13:48;93596.94;;;18.91;100.00
33859;BME280;20156;47.486;12.074;2022-09-03T07:16:22;93555.94;;;18.99;100.00
33859;BME280;20156;47.486;12.074;2022-09-03T07:18:48;93574.84;;;19.15;100.00
33859;BME280;20156;47.486;12.074;2022-09-03T07:21:17;93614.78;;;19.44;100.00
33859;BME280;20156;47.486;12.074;2022-09-03T07:23:44;93677.63;;;19.42;100.00
33859;BME280;20156;47.486;12.074;2022-09-03T07:26:16;93731.28;;;19.38;100.00
33859;BME280;20156;47.486;12.074;2022-09-03T07:28:43;93756.75;;;19.42;100.00
33859;BME280;20156;47.486;12.074;2022-09-03T07:31:24;93737.88;;;19.76;100.00
33859;BME280;20156;47.486;12.074;2022-09-03T07:34:01;93772.84;;;19.96;100.00
33859;BME280;20156;47.486;12.074;2022-09-03T07:36:33;93796.22;;;20.02;100.00
33859;BME280;20156;47.486;12.074;2022-09-03T07:38:59;93777.31;;;20.09;100.00
33859;BME280;20156;47.486;12.074;2022-09-03T07:41:25;93840.09;;;19.98;100.00
33859;BME280;20156;47.486;12.074;2022-09-03T07:43:52;93916.69;;;19.85;100.00
33859;BME280;20156;47.486;12.074;2022-09-03T07:46:20;93947.41;;;20.35;100.00
33859;BME280;20156;47.486;12.074;2022-09-03T07:51:16;93947.41;;;20.49;100.00
33859;BME280;20156;47.486;12.074;2022-09-03T07:53:43;93973.78;;;20.63;100.00
33859;BME280;20156;47.486;12.074;2022-09-03T07:56:10;94004.47;;;21.00;100.00
33859;BME280;20156;47.486;12.074;2022-09-03T07:58:37;94016.25;;;20.80;100.00
33859;BME280;20156;47.486;12.074;2022-09-03T08:01:05;94018.72;;;20.77;100.00
33859;BME280;20156;47.486;12.074;2022-09-03T08:03:35;94026.84;;;20.80;100.00
33859;BME280;20156;47.486;12.074;2022-09-03T08:06:04;94001.00;;;20.77;100.00
33859;BME280;20156;47.486;12.074;2022-09-03T08:08:30;93996.81;;;20.35;100.00
33859;BME280;20156;47.486;12.074;2022-09-03T08:11:18;94025.94;;;20.02;100.00
33859;BME280;20156;47.486;12.074;2022-09-03T08:14:02;94082.91;;;19.90;100.00
33859;BME280;20156;47.486;12.074;2022-09-03T08:16:50;94032.34;;;20.84;100.00
33859;BME280;20156;47.486;12.074;2022-09-03T08:19:16;94080.56;;;20.21;100.00
33859;BME280;20156;47.486;12.074;2022-09-03T08:21:42;94033.97;;;20.25;100.00
33859;BME280;20156;47.486;12.074;2022-09-03T08:24:10;94009.66;;;20.41;100.00
33859;BME280;20156;47.486;12.074;2022-09-03T08:26:38;93967.34;;;21.05;100.00
33859;BME280;20156;47.486;12.074;2022-09-03T08:29:05;94008.56;;;21.42;100.00
33859;BME280;20156;47.486;12.074;2022-09-03T08:31:32;94036.59;;;21.66;100.00
33859;BME280;20156;47.486;12.074;2022-09-03T08:33:59;94047.81;;;21.85;100.00
33859;BME280;20156;47.486;12.074;2022-09-03T08:36:29;94116.66;;;21.85;100.00
33859;BME280;20156;47.486;12.074;2022-09-03T08:38:56;94106.47;;;22.23;100.00
33859;BME280;20156;47.486;12.074;2022-09-03T08:46:50;94088.88;;;22.27;100.00
33859;BME280;20156;47.486;12.074;2022-09-03T08:51:51;94102.69;;;22.46;100.00
33859;BME280;20156;47.486;12.074;2022-09-03T08:54:20;94119.47;;;22.33;100.00
33859;BME280;20156;47.486;12.074;2022-09-03T08:56:48;94100.44;;;22.31;100.00
33859;BME280;20156;47.486;12.074;2022-09-03T08:59:14;94084.75;;;22.43;100.00
33859;BME280;20156;47.486;12.074;2022-09-03T09:01:53;94097.09;;;22.48;100.00
33859;BME280;20156;47.486;12.074;2022-09-03T09:07:20;94134.44;;;22.60;100.00
33859;BME280;20156;47.486;12.074;2022-09-03T09:12:38;94095.25;;;22.17;100.00
33859;BME280;20156;47.486;12.074;2022-09-03T09:15:12;94098.84;;;22.21;100.00
33859;BME280;20156;47.486;12.074;2022-09-03T09:20:12;94055.13;;;22.10;100.00
33859;BME280;20156;47.486;12.074;2022-09-03T09:22:43;94031.13;;;22.07;100.00
33859;BME280;20156;47.486;12.074;2022-09-03T09:25:14;94014.31;;;22.51;100.00
33859;BME280;20156;47.486;12.074;2022-09-03T09:27:47;94081.91;;;23.19;100.00
33859;BME280;20156;47.486;12.074;2022-09-03T09:30:16;94166.97;;;23.71;100.00
33859;BME280;20156;47.486;12.074;2022-09-03T09:32:42;94199.50;;;23.85;100.00
33859;BME280;20156;47.486;12.074;2022-09-03T09:35:09;94196.34;;;24.00;100.00
33859;BME280;20156;47.486;12.074;2022-09-03T09:37:46;94207.28;;;23.99;100.00
33859;BME280;20156;47.486;12.074;2022-09-03T09:40:31;94284.09;;;24.26;100.00
33859;BME280;20156;47.486;12.074;2022-09-03T09:45:40;94287.84;;;24.25;100.00
33859;BME280;20156;47.486;12.074;2022-09-03T09:50:47;94354.78;;;23.39;100.00
33859;BME280;20156;47.486;12.074;2022-09-03T09:53:16;94319.72;;;22.98;100.00
33859;BME280;20156;47.486;12.074;2022-09-03T09:55:49;94296.06;;;23.10;100.00
33859;BME280;20156;47.486;12.074;2022-09-03T09:58:18;94279.78;;;22.80;100.00
33859;BME280;20156;47.486;12.074;2022-09-03T10:01:17;94278.72;;;23.04;100.00
33859;BME280;20156;47.486;12.074;2022-09-03T10:03:47;94257.59;;;22.99;100.00
33859;BME280;20156;47.486;12.074;2022-09-03T10:06:14;94293.47;;;22.96;100.00
33859;BME280;20156;47.486;12.074;2022-09-03T10:09:10;94284.03;;;23.35;100.00
33859;BME280;20156;47.486;12.074;2022-09-03T10:11:38;94299.41;;;24.04;100.00
33859;BME280;20156;47.486;12.074;2022-09-03T10:14:16;94324.31;;;24.51;100.00
33859;BME280;20156;47.486;12.074;2022-09-03T10:16:49;94367.41;;;25.05;100.00
33859;BME280;20156;47.486;12.074;2022-09-03T10:19:24;94359.25;;;24.75;100.00
33859;BME280;20156;47.486;12.074;2022-09-03T10:22:16;94333.88;;;25.12;100.00
33859;BME280;20156;47.486;12.074;2022-09-03T10:24:57;94324.94;;;24.82;100.00
33859;BME280;20156;47.486;12.074;2022-09-03T10:27:23;94300.69;;;24.67;100.00
33859;BME280;20156;47.486;12.074;2022-09-03T10:29:49;94294.47;;;24.54;100.00
33859;BME280;20156;47.486;12.074;2022-09-03T10:32:51;94265.03;;;24.50;100.00
33859;BME280;20156;47.486;12.074;2022-09-03T10:35:25;94221.97;;;24.74;100.00
33859;BME280;20156;47.486;12.074;2022-09-03T10:40:41;94120.50;;;24.38;100.00
33859;BME280;20156;47.486;12.074;2022-09-03T10:51:07;94168.97;;;24.17;100.00
33859;BME280;20156;47.486;12.074;2022-09-03T10:59:29;93966.00;;;24.13;100.00
33859;BME280;20156;47.486;12.074;2022-09-03T11:07:51;93982.63;;;24.48;100.00
33859;BME280;20156;47.486;12.074;2022-09-03T11:10:28;93959.13;;;24.50;100.00
33859;BME280;20156;47.486;12.074;2022-09-03T11:15:33;94100.63;;;25.20;100.00
33859;BME280;20156;47.486;12.074;2022-09-03T11:20:35;94223.84;;;25.29;100.00
33859;BME280;20156;47.486;12.074;2022-09-03T11:23:03;94264.25;;;25.31;100.00
33859;BME280;20156;47.486;12.074;2022-09-03T11:25:42;94291.94;;;24.32;100.00
33859;BME280;20156;47.486;12.074;2022-09-03T11:28:35;94248.00;;;24.43;100.00
33859;BME280;20156;47.486;12.074;2022-09-03T11:34:00;94224.56;;;25.09;100.00
33859;BME280;20156;47.486;12.074;2022-09-03T11:36:32;94243.44;;;25.63;100.00
33859;BME280;20156;47.486;12.074;2022-09-03T11:38:58;94216.22;;;26.07;100.00
33859;BME280;20156;47.486;12.074;2022-09-03T11:41:30;94256.53;;;26.06;100.00
33859;BME280;20156;47.486;12.074;2022-09-03T11:44:18;94329.34;;;24.78;100.00
33859;BME280;20156;47.486;12.074;2022-09-03T11:46:57;94305.88;;;24.54;100.00
33859;BME280;20156;47.486;12.074;2022-09-03T11:49:27;94286.94;;;24.65;100.00
33859;BME280;20156;47.486;12.074;2022-09-03T11:52:04;94215.19;;;25.03;100.00
33859;BME280;20156;47.486;12.074;2022-09-03T11:54:43;94141.75;;;24.93;100.00
33859;BME280;20156;47.486;12.074;2022-09-03T11:59:35;94095.69;;;25.01;100.00
33859;BME280;20156;47.486;12.074;2022-09-03T12:02:05;94134.22;;;24.95;100.00
33859;BME280;20156;47.486;12.074;2022-09-03T12:07:32;94028.28;;;24.88;100.00
33859;BME280;20156;47.486;12.074;2022-09-03T12:18:21;94042.06;;;24.52;100.00
33859;BME280;20156;47.486;12.074;2022-09-03T12:26:00;93753.84;;;24.36;100.00
33859;BME280;20156;47.486;12.074;2022-09-03T12:28:28;94017.75;;;24.24;100.00
33859;BME280;20156;47.486;12.074;2022-09-03T12:31:05;94196.97;;;24.15;100.00
33859;BME280;20156;47.486;12.074;2022-09-03T12:33:32;93974.56;;;24.27;100.00
33859;BME280;20156;47.486;12.074;2022-09-03T12:35:59;94094.56;;;24.09;100.00
33859;BME280;20156;47.486;12.074;2022-09-03T12:38:27;94115.72;;;23.70;100.00
33859;BME280;20156;47.486;12.074;2022-09-03T12:40:54;94118.34;;;23.53;100.00
33859;BME280;20156;47.486;12.074;2022-09-03T12:43:26;94134.63;;;23.86;100.00
33859;BME280;20156;47.486;12.074;2022-09-03T12:45:52;94093.34;;;23.89;100.00
33859;BME280;20156;47.486;12.074;2022-09-03T12:48:19;94068.72;;;24.26;100.00
33859;BME280;20156;47.486;12.074;2022-09-03T12:50:47;94128.50;;;24.20;100.00
33859;BME280;20156;47.486;12.074;2022-09-03T12:53:31;94098.97;;;23.79;100.00
33859;BME280;20156;47.486;12.074;2022-09-03T12:55:58;94036.44;;;23.81;100.00
33859;BME280;20156;47.486;12.074;2022-09-03T12:58:35;94038.78;;;23.91;100.00
33859;BME280;20156;47.486;12.074;2022-09-03T13:01:11;94074.56;;;23.94;100.00
33859;BME280;20156;47.486;12.074;2022-09-03T13:04:21;94060.19;;;24.04;100.00
33859;BME280;20156;47.486;12.074;2022-09-03T13:09:23;94033.25;;;24.14;100.00
33859;BME280;20156;47.486;12.074;2022-09-03T13:11:50;94048.78;;;23.94;100.00
33859;BME280;20156;47.486;12.074;2022-09-03T13:14:20;94057.94;;;24.23;100.00
33859;BME280;20156;47.486;12.074;2022-09-03T13:19:55;94031.59;;;23.92;100.00
33859;BME280;20156;47.486;12.074;2022-09-03T13:25:55;94033.97;;;23.76;100.00
33859;BME280;20156;47.486;12.074;2022-09-03T13:28:27;94005.56;;;24.15;100.00
33859;BME280;20156;47.486;12.074;2022-09-03T13:31:05;93980.72;;;24.19;100.00
33859;BME280;20156;47.486;12.074;2022-09-03T13:33:49;93971.72;;;24.41;100.00
33859;BME280;20156;47.486;12.074;2022-09-03T13:36:21;93939.16;;;24.44;100.00
33859;BME280;20156;47.486;12.074;2022-09-03T13:39:18;94018.81;;;24.41;100.00
33859;BME280;20156;47.486;12.074;2022-09-03T13:41:54;94044.34;;;24.24;100.00
33859;BME280;20156;47.486;12.074;2022-09-03T13:44:37;94035.47;;;24.58;100.00
33859;BME280;20156;47.486;12.074;2022-09-03T13:47:16;94056.00;;;24.49;100.00
33859;BME280;20156;47.486;12.074;2022-09-03T13:53:13;94034.56;;;24.46;100.00
33859;BME280;20156;47.486;12.074;2022-09-03T13:55:45;94065.56;;;24.42;100.00
33859;BME280;20156;47.486;12.074;2022-09-03T13:58:30;94041.00;;;24.45;100.00
33859;BME280;20156;47.486;12.074;2022-09-03T14:03:46;94015.88;;;24.63;100.00
33859;BME280;20156;47.486;12.074;2022-09-03T14:06:23;94063.97;;;24.49;100.00
33859;BME280;20156;47.486;12.074;2022-09-03T14:15:31;94000.63;;;23.96;100.00
33859;BME280;20156;47.486;12.074;2022-09-03T14:20:11;93952.91;;;23.53;100.00
33859;BME280;20156;47.486;12.074;2022-09-03T14:22:58;93952.56;;;23.63;100.00
33859;BME280;20156;47.486;12.074;2022-09-03T14:25:27;93949.66;;;23.13;100.00
33859;BME280;20156;47.486;12.074;2022-09-03T14:28:34;93944.66;;;23.20;100.00
33859;BME280;20156;47.486;12.074;2022-09-03T14:36:54;93927.16;;;22.84;100.00
33859;BME280;20156;47.486;12.074;2022-09-03T14:39:32;93893.13;;;23.21;100.00
33859;BME280;20156;47.486;12.074;2022-09-03T15:01:10;93840.88;;;22.52;100.00
33859;BME280;20156;47.486;12.074;2022-09-03T15:11:30;93827.75;;;22.81;100.00
33859;BME280;20156;47.486;12.074;2022-09-03T15:30:35;93571.38;;;21.83;100.00
33859;BME280;20156;47.486;12.074;2022-09-03T15:33:32;93637.75;;;21.96;100.00
33859;BME280;20156;47.486;12.074;2022-09-03T15:39:05;93575.34;;;21.34;100.00
33859;BME280;20156;47.486;12.074;2022-09-03T15:41:49;93719.31;;;21.02;100.00
33859;BME280;20156;47.486;12.074;2022-09-03T15:44:16;93992.50;;;20.25;100.00
33859;BME280;20156;47.486;12.074;2022-09-03T15:47:11;93903.22;;;19.07;100.00
33859;BME280;20156;47.486;12.074;2022-09-03T15:49:53;93831.16;;;18.98;100.00
33859;BME280;20156;47.486;12.074;2022-09-03T15:55:11;93743.22;;;17.91;100.00
33859;BME280;20156;47.486;12.074;2022-09-03T15:57:55;93550.59;;;17.43;100.00
33859;BME280;20156;47.486;12.074;2022-09-03T16:00:55;93439.34;;;17.89;100.00
33859;BME280;20156;47.486;12.074;2022-09-03T16:09:08;93165.63;;;16.94;100.00
33859;BME280;20156;47.486;12.074;2022-09-03T16:14:33;93010.22;;;16.65;100.00
33859;BME280;20156;47.486;12.074;2022-09-03T16:20:05;93080.09;;;17.16;100.00
33859;BME280;20156;47.486;12.074;2022-09-03T16:22:39;93143.94;;;17.02;100.00
33859;BME280;20156;47.486;12.074;2022-09-03T16:25:13;93157.88;;;16.89;100.00
33859;BME280;20156;47.486;12.074;2022-09-03T16:28:07;93207.00;;;16.89;100.00
33859;BME280;20156;47.486;12.074;2022-09-03T16:36:14;93358.84;;;17.47;100.00
33859;BME280;20156;47.486;12.074;2022-09-03T16:47:31;93275.28;;;17.30;100.00
33859;BME280;20156;47.486;12.074;2022-09-03T16:58:54;93097.78;;;17.10;100.00
33859;BME280;20156;47.486;12.074;2022-09-03T17:02:13;93016.47;;;17.05;100.00
33859;BME280;20156;47.486;12.074;2022-09-03T17:15:18;92988.25;;;16.61;100.00